sensor_id;sensor_type;location;lat;lon;timestamp;P1;P2;P0
77481;PMS5003;66582;43.004;-75.010;2023-04-01T00:00:52;23;20;
77481;PMS5003;66582;43.004;-75.010;2023-04-01T00:03:17;16;15;
77481;PMS5003;66582;43.004;-75.010;2023-04-01T00:05:43;23;19;
77481;PMS5003;66582;43.004;-75.010;2023-04-01T00:08:08;21;18;
77481;PMS5003;66582;43.004;-75.010;2023-04-01T00:10:33;17;16;
77481;PMS5003;66582;43.004;-75.010;2023-04-01T00:12:58;21;18;
77481;PMS5003;66582;43.004;-75.010;2023-04-01T00:15:24;22;20;
77481;PMS5003;66582;43.004;-75.010;2023-04-01T00:17:50;20;19;
77481;PMS5003;66582;43.004;-75.010;2023-04-01T00:20:15;22;20;
77481;PMS5003;66582;43.004;-75.010;2023-04-01T00:22:40;21;20;
77481;PMS5003;66582;43.004;-75.010;2023-04-01T00:25:06;21;19;
77481;PMS5003;66582;43.004;-75.010;2023-04-01T00:27:31;25;21;
77481;PMS5003;66582;43.004;-75.010;2023-04-01T00:29:57;23;20;
77481;PMS5003;66582;43.004;-75.010;2023-04-01T00:32:23;18;18;
77481;PMS5003;66582;43.004;-75.010;2023-04-01T00:34:50;22;20;
77481;PMS5003;66582;43.004;-75.010;2023-04-01T00:37:14;18;17;
77481;PMS5003;66582;43.004;-75.010;2023-04-01T00:39:39;18;17;
77481;PMS5003;66582;43.004;-75.010;2023-04-01T00:42:04;23;21;
77481;PMS5003;66582;43.004;-75.010;2023-04-01T00:44:30;21;18;
77481;PMS5003;66582;43.004;-75.010;2023-04-01T00:46:55;21;18;
77481;PMS5003;66582;43.004;-75.010;2023-04-01T00:49:20;19;19;
77481;PMS5003;66582;43.004;-75.010;2023-04-01T00:51:47;22;21;
77481;PMS5003;66582;43.004;-75.010;2023-04-01T00:54:11;22;21;
77481;PMS5003;66582;43.004;-75.010;2023-04-01T00:56:37;17;15;
77481;PMS5003;66582;43.004;-75.010;2023-04-01T00:59:04;22;18;
77481;PMS5003;66582;43.004;-75.010;2023-04-01T01:01:28;21;18;
77481;PMS5003;66582;43.004;-75.010;2023-04-01T01:03:53;17;16;
77481;PMS5003;66582;43.004;-75.010;2023-04-01T01:06:22;15;15;
77481;PMS5003;66582;43.004;-75.010;2023-04-01T01:08:49;22;19;
77481;PMS5003;66582;43.004;-75.010;2023-04-01T01:11:08;20;17;
77481;PMS5003;66582;43.004;-75.010;2023-04-01T01:13:36;23;21;
77481;PMS5003;66582;43.004;-75.010;2023-04-01T01:16:00;22;22;
77481;PMS5003;66582;43.004;-75.010;2023-04-01T01:18:26;21;18;
77481;PMS5003;66582;43.004;-75.010;2023-04-01T01:25:43;22;19;
77481;PMS5003;66582;43.004;-75.010;2023-04-01T01:28:14;24;22;
77481;PMS5003;66582;43.004;-75.010;2023-04-01T01:30:35;24;23;
77481;PMS5003;66582;43.004;-75.010;2023-04-01T01:33:01;21;21;
77481;PMS5003;66582;43.004;-75.010;2023-04-01T01:35:24;20;20;
77481;PMS5003;66582;43.004;-75.010;2023-04-01T01:37:50;21;20;
77481;PMS5003;66582;43.004;-75.010;2023-04-01T01:40:14;21;19;
77481;PMS5003;66582;43.004;-75.010;2023-04-01T01:42:41;23;20;
77481;PMS5003;66582;43.004;-75.010;2023-04-01T01:45:05;22;21;
77481;PMS5003;66582;43.004;-75.010;2023-04-01T01:47:31;24;21;
77481;PMS5003;66582;43.004;-75.010;2023-04-01T01:49:56;25;22;
77481;PMS5003;66582;43.004;-75.010;2023-04-01T01:52:22;28;26;
77481;PMS5003;66582;43.004;-75.010;2023-04-01T01:54:47;30;26;
77481;PMS5003;66582;43.004;-75.010;2023-04-01T01:57:12;26;22;
77481;PMS5003;66582;43.004;-75.010;2023-04-01T01:59:38;30;27;
77481;PMS5003;66582;43.004;-75.010;2023-04-01T02:02:04;22;20;
77481;PMS5003;66582;43.004;-75.010;2023-04-01T02:04:29;24;22;
77481;PMS5003;66582;43.004;-75.010;2023-04-01T02:06:56;31;28;
77481;PMS5003;66582;43.004;-75.010;2023-04-01T02:09:20;28;27;
77481;PMS5003;66582;43.004;-75.010;2023-04-01T02:11:47;26;25;
77481;PMS5003;66582;43.004;-75.010;2023-04-01T02:14:12;26;25;
77481;PMS5003;66582;43.004;-75.010;2023-04-01T02:16:38;31;28;
77481;PMS5003;66582;43.004;-75.010;2023-04-01T02:19:02;29;26;
77481;PMS5003;66582;43.004;-75.010;2023-04-01T02:21:27;29;28;
77481;PMS5003;66582;43.004;-75.010;2023-04-01T02:23:52;30;25;
77481;PMS5003;66582;43.004;-75.010;2023-04-01T02:26:17;26;25;
77481;PMS5003;66582;43.004;-75.010;2023-04-01T02:28:43;28;28;
77481;PMS5003;66582;43.004;-75.010;2023-04-01T02:31:09;33;29;
77481;PMS5003;66582;43.004;-75.010;2023-04-01T02:33:34;26;26;
77481;PMS5003;66582;43.004;-75.010;2023-04-01T02:35:59;28;28;
77481;PMS5003;66582;43.004;-75.010;2023-04-01T02:38:25;33;31;
77481;PMS5003;66582;43.004;-75.010;2023-04-01T02:40:55;28;27;
77481;PMS5003;66582;43.004;-75.010;2023-04-01T02:43:16;31;30;
77481;PMS5003;66582;43.004;-75.010;2023-04-01T02:45:42;38;34;
77481;PMS5003;66582;43.004;-75.010;2023-04-01T02:48:07;31;30;
77481;PMS5003;66582;43.004;-75.010;2023-04-01T02:50:32;28;26;
77481;PMS5003;66582;43.004;-75.010;2023-04-01T02:52:58;31;29;
77481;PMS5003;66582;43.004;-75.010;2023-04-01T02:55:24;32;30;
77481;PMS5003;66582;43.004;-75.010;2023-04-01T02:57:49;33;30;
77481;PMS5003;66582;43.004;-75.010;2023-04-01T03:00:16;35;33;
77481;PMS5003;66582;43.004;-75.010;2023-04-01T03:02:40;26;25;
77481;PMS5003;66582;43.004;-75.010;2023-04-01T03:05:06;33;29;
77481;PMS5003;66582;43.004;-75.010;2023-04-01T03:07:31;34;32;
77481;PMS5003;66582;43.004;-75.010;2023-04-01T03:09:57;27;27;
77481;PMS5003;66582;43.004;-75.010;2023-04-01T03:12:22;30;28;
77481;PMS5003;66582;43.004;-75.010;2023-04-01T03:14:47;33;32;
77481;PMS5003;66582;43.004;-75.010;2023-04-01T03:17:13;34;31;
77481;PMS5003;66582;43.004;-75.010;2023-04-01T03:19:39;33;31;
77481;PMS5003;66582;43.004;-75.010;2023-04-01T03:22:04;32;29;
77481;PMS5003;66582;43.004;-75.010;2023-04-01T03:24:30;30;28;
77481;PMS5003;66582;43.004;-75.010;2023-04-01T03:26:55;34;31;
77481;PMS5003;66582;43.004;-75.010;2023-04-01T03:29:21;33;32;
77481;PMS5003;66582;43.004;-75.010;2023-04-01T03:31:46;32;31;
77481;PMS5003;66582;43.004;-75.010;2023-04-01T03:34:12;27;26;
77481;PMS5003;66582;43.004;-75.010;2023-04-01T03:36:37;37;30;
77481;PMS5003;66582;43.004;-75.010;2023-04-01T03:39:02;32;31;
77481;PMS5003;66582;43.004;-75.010;2023-04-01T03:41:27;37;36;
77481;PMS5003;66582;43.004;-75.010;2023-04-01T03:43:53;32;29;
77481;PMS5003;66582;43.004;-75.010;2023-04-01T03:46:19;38;36;
77481;PMS5003;66582;43.004;-75.010;2023-04-01T03:48:44;37;35;
77481;PMS5003;66582;43.004;-75.010;2023-04-01T03:51:10;38;36;
77481;PMS5003;66582;43.004;-75.010;2023-04-01T03:53:36;40;35;
77481;PMS5003;66582;43.004;-75.010;2023-04-01T03:56:03;37;35;
77481;PMS5003;66582;43.004;-75.010;2023-04-01T03:58:27;40;37;
77481;PMS5003;66582;43.004;-75.010;2023-04-01T04:00:53;39;36;
77481;PMS5003;66582;43.004;-75.010;2023-04-01T04:03:18;36;35;
77481;PMS5003;66582;43.004;-75.010;2023-04-01T04:05:46;44;35;
77481;PMS5003;66582;43.004;-75.010;2023-04-01T04:08:09;38;31;
77481;PMS5003;66582;43.004;-75.010;2023-04-01T04:10:35;35;33;
77481;PMS5003;66582;43.004;-75.010;2023-04-01T04:13:00;38;34;
77481;PMS5003;66582;43.004;-75.010;2023-04-01T04:15:25;33;31;
77481;PMS5003;66582;43.004;-75.010;2023-04-01T04:17:52;41;36;
77481;PMS5003;66582;43.004;-75.010;2023-04-01T04:20:17;44;41;
77481;PMS5003;66582;43.004;-75.010;2023-04-01T04:22:42;42;37;
77481;PMS5003;66582;43.004;-75.010;2023-04-01T04:25:07;35;33;
77481;PMS5003;66582;43.004;-75.010;2023-04-01T04:27:33;43;41;
77481;PMS5003;66582;43.004;-75.010;2023-04-01T04:29:58;41;36;
77481;PMS5003;66582;43.004;-75.010;2023-04-01T04:32:23;43;40;
77481;PMS5003;66582;43.004;-75.010;2023-04-01T04:34:49;39;35;
77481;PMS5003;66582;43.004;-75.010;2023-04-01T04:37:14;41;40;
77481;PMS5003;66582;43.004;-75.010;2023-04-01T04:39:39;38;36;
77481;PMS5003;66582;43.004;-75.010;2023-04-01T04:42:05;36;34;
77481;PMS5003;66582;43.004;-75.010;2023-04-01T04:44:30;40;39;
77481;PMS5003;66582;43.004;-75.010;2023-04-01T04:46:56;43;39;
77481;PMS5003;66582;43.004;-75.010;2023-04-01T04:49:22;43;38;
77481;PMS5003;66582;43.004;-75.010;2023-04-01T04:51:47;43;39;
77481;PMS5003;66582;43.004;-75.010;2023-04-01T04:54:13;43;41;
77481;PMS5003;66582;43.004;-75.010;2023-04-01T04:56:38;37;34;
77481;PMS5003;66582;43.004;-75.010;2023-04-01T04:59:05;38;34;
77481;PMS5003;66582;43.004;-75.010;2023-04-01T05:01:30;44;42;
77481;PMS5003;66582;43.004;-75.010;2023-04-01T05:03:55;39;38;
77481;PMS5003;66582;43.004;-75.010;2023-04-01T05:06:20;45;43;
77481;PMS5003;66582;43.004;-75.010;2023-04-01T05:08:46;44;40;
77481;PMS5003;66582;43.004;-75.010;2023-04-01T05:11:12;44;41;
77481;PMS5003;66582;43.004;-75.010;2023-04-01T05:13:37;38;34;
77481;PMS5003;66582;43.004;-75.010;2023-04-01T05:16:02;38;37;
77481;PMS5003;66582;43.004;-75.010;2023-04-01T05:18:27;37;34;
77481;PMS5003;66582;43.004;-75.010;2023-04-01T05:20:53;42;39;
77481;PMS5003;66582;43.004;-75.010;2023-04-01T05:23:19;41;38;
77481;PMS5003;66582;43.004;-75.010;2023-04-01T05:25:44;37;34;
77481;PMS5003;66582;43.004;-75.010;2023-04-01T05:28:09;39;36;
77481;PMS5003;66582;43.004;-75.010;2023-04-01T05:30:35;38;34;
77481;PMS5003;66582;43.004;-75.010;2023-04-01T05:33:01;36;34;
77481;PMS5003;66582;43.004;-75.010;2023-04-01T05:35:28;32;30;
77481;PMS5003;66582;43.004;-75.010;2023-04-01T05:37:52;37;32;
77481;PMS5003;66582;43.004;-75.010;2023-04-01T05:40:17;42;36;
77481;PMS5003;66582;43.004;-75.010;2023-04-01T05:42:44;42;37;
77481;PMS5003;66582;43.004;-75.010;2023-04-01T05:45:09;30;27;
77481;PMS5003;66582;43.004;-75.010;2023-04-01T05:47:34;35;32;
77481;PMS5003;66582;43.004;-75.010;2023-04-01T05:50:00;38;33;
77481;PMS5003;66582;43.004;-75.010;2023-04-01T05:52:26;45;36;
77481;PMS5003;66582;43.004;-75.010;2023-04-01T05:54:51;34;32;
77481;PMS5003;66582;43.004;-75.010;2023-04-01T05:57:16;38;34;
77481;PMS5003;66582;43.004;-75.010;2023-04-01T05:59:43;34;32;
77481;PMS5003;66582;43.004;-75.010;2023-04-01T06:02:08;37;34;
77481;PMS5003;66582;43.004;-75.010;2023-04-01T06:04:34;35;34;
77481;PMS5003;66582;43.004;-75.010;2023-04-01T06:06:59;31;28;
77481;PMS5003;66582;43.004;-75.010;2023-04-01T06:09:26;36;34;
77481;PMS5003;66582;43.004;-75.010;2023-04-01T06:11:54;39;35;
77481;PMS5003;66582;43.004;-75.010;2023-04-01T06:14:18;28;26;
77481;PMS5003;66582;43.004;-75.010;2023-04-01T06:16:44;47;32;
77481;PMS5003;66582;43.004;-75.010;2023-04-01T06:19:09;35;33;
77481;PMS5003;66582;43.004;-75.010;2023-04-01T06:21:35;33;31;
77481;PMS5003;66582;43.004;-75.010;2023-04-01T06:23:58;36;33;
77481;PMS5003;66582;43.004;-75.010;2023-04-01T06:26:24;38;34;
77481;PMS5003;66582;43.004;-75.010;2023-04-01T06:28:54;43;35;
77481;PMS5003;66582;43.004;-75.010;2023-04-01T06:31:15;38;32;
77481;PMS5003;66582;43.004;-75.010;2023-04-01T06:33:42;37;34;
77481;PMS5003;66582;43.004;-75.010;2023-04-01T06:36:06;41;35;
77481;PMS5003;66582;43.004;-75.010;2023-04-01T06:38:30;40;35;
77481;PMS5003;66582;43.004;-75.010;2023-04-01T06:43:21;40;37;
77481;PMS5003;66582;43.004;-75.010;2023-04-01T06:45:46;38;34;
77481;PMS5003;66582;43.004;-75.010;2023-04-01T06:48:13;38;35;
77481;PMS5003;66582;43.004;-75.010;2023-04-01T06:50:49;42;37;
77481;PMS5003;66582;43.004;-75.010;2023-04-01T06:53:03;38;36;
77481;PMS5003;66582;43.004;-75.010;2023-04-01T06:55:29;40;38;
77481;PMS5003;66582;43.004;-75.010;2023-04-01T06:57:54;41;35;
77481;PMS5003;66582;43.004;-75.010;2023-04-01T07:00:19;36;34;
77481;PMS5003;66582;43.004;-75.010;2023-04-01T07:02:45;40;34;
77481;PMS5003;66582;43.004;-75.010;2023-04-01T07:05:10;42;38;
77481;PMS5003;66582;43.004;-75.010;2023-04-01T07:07:35;36;34;
77481;PMS5003;66582;43.004;-75.010;2023-04-01T07:10:02;45;39;
77481;PMS5003;66582;43.004;-75.010;2023-04-01T07:12:29;35;31;
77481;PMS5003;66582;43.004;-75.010;2023-04-01T07:14:51;37;34;
77481;PMS5003;66582;43.004;-75.010;2023-04-01T07:17:17;38;35;
77481;PMS5003;66582;43.004;-75.010;2023-04-01T07:19:42;38;34;
77481;PMS5003;66582;43.004;-75.010;2023-04-01T07:22:10;38;33;
77481;PMS5003;66582;43.004;-75.010;2023-04-01T07:24:33;43;35;
77481;PMS5003;66582;43.004;-75.010;2023-04-01T07:26:58;33;31;
77481;PMS5003;66582;43.004;-75.010;2023-04-01T07:29:23;39;33;
77481;PMS5003;66582;43.004;-75.010;2023-04-01T07:31:56;37;32;
77481;PMS5003;66582;43.004;-75.010;2023-04-01T07:34:16;36;33;
77481;PMS5003;66582;43.004;-75.010;2023-04-01T07:36:42;32;28;
77481;PMS5003;66582;43.004;-75.010;2023-04-01T07:39:08;36;34;
77481;PMS5003;66582;43.004;-75.010;2023-04-01T07:41:32;31;29;
77481;PMS5003;66582;43.004;-75.010;2023-04-01T07:44:00;35;32;
77481;PMS5003;66582;43.004;-75.010;2023-04-01T07:46:25;34;33;
77481;PMS5003;66582;43.004;-75.010;2023-04-01T07:48:48;33;29;
77481;PMS5003;66582;43.004;-75.010;2023-04-01T07:51:13;37;36;
77481;PMS5003;66582;43.004;-75.010;2023-04-01T07:53:38;37;34;
77481;PMS5003;66582;43.004;-75.010;2023-04-01T07:56:05;34;30;
77481;PMS5003;66582;43.004;-75.010;2023-04-01T07:58:29;32;30;
77481;PMS5003;66582;43.004;-75.010;2023-04-01T08:00:55;30;26;
77481;PMS5003;66582;43.004;-75.010;2023-04-01T08:03:24;33;31;
77481;PMS5003;66582;43.004;-75.010;2023-04-01T08:05:47;29;26;
77481;PMS5003;66582;43.004;-75.010;2023-04-01T08:08:11;32;30;
77481;PMS5003;66582;43.004;-75.010;2023-04-01T08:10:36;42;36;
77481;PMS5003;66582;43.004;-75.010;2023-04-01T08:13:02;43;37;
77481;PMS5003;66582;43.004;-75.010;2023-04-01T08:15:27;36;33;
77481;PMS5003;66582;43.004;-75.010;2023-04-01T08:17:55;38;33;
77481;PMS5003;66582;43.004;-75.010;2023-04-01T08:20:21;36;33;
77481;PMS5003;66582;43.004;-75.010;2023-04-01T08:22:45;33;29;
77481;PMS5003;66582;43.004;-75.010;2023-04-01T08:25:10;33;31;
77481;PMS5003;66582;43.004;-75.010;2023-04-01T08:27:35;40;36;
77481;PMS5003;66582;43.004;-75.010;2023-04-01T08:30:01;31;30;
77481;PMS5003;66582;43.004;-75.010;2023-04-01T08:32:26;34;30;
77481;PMS5003;66582;43.004;-75.010;2023-04-01T08:34:52;31;25;
77481;PMS5003;66582;43.004;-75.010;2023-04-01T08:37:17;37;32;
77481;PMS5003;66582;43.004;-75.010;2023-04-01T08:39:43;34;27;
77481;PMS5003;66582;43.004;-75.010;2023-04-01T08:42:13;29;28;
77481;PMS5003;66582;43.004;-75.010;2023-04-01T08:44:45;29;28;
77481;PMS5003;66582;43.004;-75.010;2023-04-01T08:47:08;36;30;
77481;PMS5003;66582;43.004;-75.010;2023-04-01T08:49:28;33;31;
77481;PMS5003;66582;43.004;-75.010;2023-04-01T08:54:23;32;30;
77481;PMS5003;66582;43.004;-75.010;2023-04-01T08:56:41;37;30;
77481;PMS5003;66582;43.004;-75.010;2023-04-01T08:59:11;36;32;
77481;PMS5003;66582;43.004;-75.010;2023-04-01T09:01:36;35;32;
77481;PMS5003;66582;43.004;-75.010;2023-04-01T09:04:06;39;28;
77481;PMS5003;66582;43.004;-75.010;2023-04-01T09:06:28;31;30;
77481;PMS5003;66582;43.004;-75.010;2023-04-01T09:08:52;33;29;
77481;PMS5003;66582;43.004;-75.010;2023-04-01T09:11:17;28;24;
77481;PMS5003;66582;43.004;-75.010;2023-04-01T09:13:44;31;30;
77481;PMS5003;66582;43.004;-75.010;2023-04-01T09:16:14;27;24;
77481;PMS5003;66582;43.004;-75.010;2023-04-01T09:18:35;28;26;
77481;PMS5003;66582;43.004;-75.010;2023-04-01T09:23:26;26;23;
77481;PMS5003;66582;43.004;-75.010;2023-04-01T09:25:51;27;26;
77481;PMS5003;66582;43.004;-75.010;2023-04-01T09:28:13;18;17;
77481;PMS5003;66582;43.004;-75.010;2023-04-01T09:30:41;17;17;
77481;PMS5003;66582;43.004;-75.010;2023-04-01T09:35:31;14;12;
77481;PMS5003;66582;43.004;-75.010;2023-04-01T09:37:56;11;10;
77481;PMS5003;66582;43.004;-75.010;2023-04-01T09:40:21;14;14;
77481;PMS5003;66582;43.004;-75.010;2023-04-01T09:42:45;11;11;
77481;PMS5003;66582;43.004;-75.010;2023-04-01T09:45:14;13;10;
77481;PMS5003;66582;43.004;-75.010;2023-04-01T09:47:40;9;9;
77481;PMS5003;66582;43.004;-75.010;2023-04-01T09:50:06;11;9;
77481;PMS5003;66582;43.004;-75.010;2023-04-01T09:52:27;9;9;
77481;PMS5003;66582;43.004;-75.010;2023-04-01T09:54:57;8;8;
77481;PMS5003;66582;43.004;-75.010;2023-04-01T09:59:46;9;8;
77481;PMS5003;66582;43.004;-75.010;2023-04-01T10:16:42;6;5;
77481;PMS5003;66582;43.004;-75.010;2023-04-01T10:26:26;4;4;
77481;PMS5003;66582;43.004;-75.010;2023-04-01T10:31:15;5;5;
77481;PMS5003;66582;43.004;-75.010;2023-04-01T10:36:08;5;5;
77481;PMS5003;66582;43.004;-75.010;2023-04-01T10:40:53;4;4;
77481;PMS5003;66582;43.004;-75.010;2023-04-01T11:00:18;5;5;
77481;PMS5003;66582;43.004;-75.010;2023-04-01T11:12:22;3;3;
77481;PMS5003;66582;43.004;-75.010;2023-04-01T11:14:53;4;4;
77481;PMS5003;66582;43.004;-75.010;2023-04-01T11:17:10;3;3;
77481;PMS5003;66582;43.004;-75.010;2023-04-01T11:21:59;4;3;
77481;PMS5003;66582;43.004;-75.010;2023-04-01T11:24:25;3;3;
77481;PMS5003;66582;43.004;-75.010;2023-04-01T11:26:51;5;4;
77481;PMS5003;66582;43.004;-75.010;2023-04-01T11:29:21;5;4;
77481;PMS5003;66582;43.004;-75.010;2023-04-01T11:31:43;4;4;
77481;PMS5003;66582;43.004;-75.010;2023-04-01T11:34:04;3;2;
77481;PMS5003;66582;43.004;-75.010;2023-04-01T11:36:30;4;4;
77481;PMS5003;66582;43.004;-75.010;2023-04-01T11:39:01;4;3;
77481;PMS5003;66582;43.004;-75.010;2023-04-01T11:41:20;4;4;
77481;PMS5003;66582;43.004;-75.010;2023-04-01T11:43:43;5;4;
77481;PMS5003;66582;43.004;-75.010;2023-04-01T11:46:10;5;5;
77481;PMS5003;66582;43.004;-75.010;2023-04-01T11:48:36;4;4;
77481;PMS5003;66582;43.004;-75.010;2023-04-01T11:53:26;4;4;
77481;PMS5003;66582;43.004;-75.010;2023-04-01T11:55:53;6;6;
77481;PMS5003;66582;43.004;-75.010;2023-04-01T12:00:46;7;7;
77481;PMS5003;66582;43.004;-75.010;2023-04-01T12:03:10;8;7;
77481;PMS5003;66582;43.004;-75.010;2023-04-01T12:05:34;14;12;
77481;PMS5003;66582;43.004;-75.010;2023-04-01T12:08:01;10;10;
77481;PMS5003;66582;43.004;-75.010;2023-04-01T12:10:21;14;12;
77481;PMS5003;66582;43.004;-75.010;2023-04-01T12:12:48;11;11;
77481;PMS5003;66582;43.004;-75.010;2023-04-01T12:15:15;13;10;
77481;PMS5003;66582;43.004;-75.010;2023-04-01T12:17:38;11;11;
77481;PMS5003;66582;43.004;-75.010;2023-04-01T12:20:05;8;8;
77481;PMS5003;66582;43.004;-75.010;2023-04-01T12:22:32;11;11;
77481;PMS5003;66582;43.004;-75.010;2023-04-01T12:24:53;12;12;
77481;PMS5003;66582;43.004;-75.010;2023-04-01T12:27:20;12;11;
77481;PMS5003;66582;43.004;-75.010;2023-04-01T12:29:47;11;11;
77481;PMS5003;66582;43.004;-75.010;2023-04-01T12:32:12;9;9;
77481;PMS5003;66582;43.004;-75.010;2023-04-01T12:37:00;10;10;
77481;PMS5003;66582;43.004;-75.010;2023-04-01T12:39:32;15;13;
77481;PMS5003;66582;43.004;-75.010;2023-04-01T12:41:49;16;14;
77481;PMS5003;66582;43.004;-75.010;2023-04-01T12:44:19;17;16;
77481;PMS5003;66582;43.004;-75.010;2023-04-01T12:46:44;11;10;
77481;PMS5003;66582;43.004;-75.010;2023-04-01T12:49:14;14;13;
77481;PMS5003;66582;43.004;-75.010;2023-04-01T12:56:22;14;14;
77481;PMS5003;66582;43.004;-75.010;2023-04-01T13:01:21;19;16;
77481;PMS5003;66582;43.004;-75.010;2023-04-01T13:03:42;13;13;
77481;PMS5003;66582;43.004;-75.010;2023-04-01T13:08:30;14;13;
77481;PMS5003;66582;43.004;-75.010;2023-04-01T13:10:56;16;16;
77481;PMS5003;66582;43.004;-75.010;2023-04-01T13:13:23;15;15;
77481;PMS5003;66582;43.004;-75.010;2023-04-01T13:15:43;13;12;
77481;PMS5003;66582;43.004;-75.010;2023-04-01T13:18:15;13;12;
77481;PMS5003;66582;43.004;-75.010;2023-04-01T13:20:36;15;14;
77481;PMS5003;66582;43.004;-75.010;2023-04-01T13:23:02;15;15;
77481;PMS5003;66582;43.004;-75.010;2023-04-01T13:25:25;17;15;
77481;PMS5003;66582;43.004;-75.010;2023-04-01T13:27:50;16;15;
77481;PMS5003;66582;43.004;-75.010;2023-04-01T13:32:42;19;19;
77481;PMS5003;66582;43.004;-75.010;2023-04-01T13:35:12;17;15;
77481;PMS5003;66582;43.004;-75.010;2023-04-01T13:37:34;17;16;
77481;PMS5003;66582;43.004;-75.010;2023-04-01T13:40:00;17;15;
77481;PMS5003;66582;43.004;-75.010;2023-04-01T13:42:23;19;18;
77481;PMS5003;66582;43.004;-75.010;2023-04-01T13:44:49;19;18;
77481;PMS5003;66582;43.004;-75.010;2023-04-01T13:49:46;16;16;
77481;PMS5003;66582;43.004;-75.010;2023-04-01T13:54:33;15;15;
77481;PMS5003;66582;43.004;-75.010;2023-04-01T13:56:57;15;15;
77481;PMS5003;66582;43.004;-75.010;2023-04-01T14:01:47;19;18;
77481;PMS5003;66582;43.004;-75.010;2023-04-01T14:06:38;19;18;
77481;PMS5003;66582;43.004;-75.010;2023-04-01T14:09:10;21;18;
77481;PMS5003;66582;43.004;-75.010;2023-04-01T14:11:30;14;14;
77481;PMS5003;66582;43.004;-75.010;2023-04-01T14:13:58;21;20;
77481;PMS5003;66582;43.004;-75.010;2023-04-01T14:16:23;16;16;
77481;PMS5003;66582;43.004;-75.010;2023-04-01T14:18:52;20;19;
77481;PMS5003;66582;43.004;-75.010;2023-04-01T14:21:14;20;17;
77481;PMS5003;66582;43.004;-75.010;2023-04-01T14:23:39;19;18;
77481;PMS5003;66582;43.004;-75.010;2023-04-01T14:26:03;18;16;
77481;PMS5003;66582;43.004;-75.010;2023-04-01T14:28:27;18;18;
77481;PMS5003;66582;43.004;-75.010;2023-04-01T14:30:56;21;19;
77481;PMS5003;66582;43.004;-75.010;2023-04-01T14:33:21;18;18;
77481;PMS5003;66582;43.004;-75.010;2023-04-01T14:35:44;18;15;
77481;PMS5003;66582;43.004;-75.010;2023-04-01T14:38:14;18;18;
77481;PMS5003;66582;43.004;-75.010;2023-04-01T14:40:40;18;16;
77481;PMS5003;66582;43.004;-75.010;2023-04-01T14:43:03;17;16;
77481;PMS5003;66582;43.004;-75.010;2023-04-01T14:47:50;18;16;
77481;PMS5003;66582;43.004;-75.010;2023-04-01T14:50:15;14;14;
77481;PMS5003;66582;43.004;-75.010;2023-04-01T14:52:40;11;11;
77481;PMS5003;66582;43.004;-75.010;2023-04-01T14:57:30;13;12;
77481;PMS5003;66582;43.004;-75.010;2023-04-01T15:00:00;10;10;
77481;PMS5003;66582;43.004;-75.010;2023-04-01T15:04:49;9;9;
77481;PMS5003;66582;43.004;-75.010;2023-04-01T15:07:17;6;6;
77481;PMS5003;66582;43.004;-75.010;2023-04-01T15:09:37;8;7;
77481;PMS5003;66582;43.004;-75.010;2023-04-01T15:12:03;8;8;
77481;PMS5003;66582;43.004;-75.010;2023-04-01T15:16:55;5;5;
77481;PMS5003;66582;43.004;-75.010;2023-04-01T15:19:20;8;8;
77481;PMS5003;66582;43.004;-75.010;2023-04-01T15:21:45;7;7;
77481;PMS5003;66582;43.004;-75.010;2023-04-01T15:24:07;9;9;
77481;PMS5003;66582;43.004;-75.010;2023-04-01T15:29:01;6;5;
77481;PMS5003;66582;43.004;-75.010;2023-04-01T15:31:24;10;8;
77481;PMS5003;66582;43.004;-75.010;2023-04-01T15:33:51;5;5;
77481;PMS5003;66582;43.004;-75.010;2023-04-01T15:36:18;4;4;
77481;PMS5003;66582;43.004;-75.010;2023-04-01T15:38:39;4;4;
77481;PMS5003;66582;43.004;-75.010;2023-04-01T15:41:08;6;6;
77481;PMS5003;66582;43.004;-75.010;2023-04-01T15:43:31;4;4;
77481;PMS5003;66582;43.004;-75.010;2023-04-01T15:45:58;5;4;
77481;PMS5003;66582;43.004;-75.010;2023-04-01T15:48:22;3;3;
77481;PMS5003;66582;43.004;-75.010;2023-04-01T15:50:48;5;4;
77481;PMS5003;66582;43.004;-75.010;2023-04-01T15:53:15;4;4;
77481;PMS5003;66582;43.004;-75.010;2023-04-01T15:55:37;5;5;
77481;PMS5003;66582;43.004;-75.010;2023-04-01T15:58:12;4;4;
77481;PMS5003;66582;43.004;-75.010;2023-04-01T16:00:26;5;5;
77481;PMS5003;66582;43.004;-75.010;2023-04-01T16:02:52;4;4;
77481;PMS5003;66582;43.004;-75.010;2023-04-01T16:07:49;3;3;
77481;PMS5003;66582;43.004;-75.010;2023-04-01T16:10:09;3;3;
77481;PMS5003;66582;43.004;-75.010;2023-04-01T16:12:36;4;4;
77481;PMS5003;66582;43.004;-75.010;2023-04-01T16:15:00;3;3;
77481;PMS5003;66582;43.004;-75.010;2023-04-01T16:17:25;4;4;
77481;PMS5003;66582;43.004;-75.010;2023-04-01T16:19:49;5;5;
77481;PMS5003;66582;43.004;-75.010;2023-04-01T16:22:14;3;3;
77481;PMS5003;66582;43.004;-75.010;2023-04-01T16:24:40;4;4;
77481;PMS5003;66582;43.004;-75.010;2023-04-01T16:27:04;4;4;
77481;PMS5003;66582;43.004;-75.010;2023-04-01T16:29:30;3;3;
77481;PMS5003;66582;43.004;-75.010;2023-04-01T16:31:55;5;4;
77481;PMS5003;66582;43.004;-75.010;2023-04-01T16:34:20;4;4;
77481;PMS5003;66582;43.004;-75.010;2023-04-01T16:36:45;4;3;
77481;PMS5003;66582;43.004;-75.010;2023-04-01T16:39:15;3;3;
77481;PMS5003;66582;43.004;-75.010;2023-04-01T16:41:35;4;4;
77481;PMS5003;66582;43.004;-75.010;2023-04-01T16:46:28;4;4;
77481;PMS5003;66582;43.004;-75.010;2023-04-01T16:48:54;3;3;
77481;PMS5003;66582;43.004;-75.010;2023-04-01T16:51:16;2;2;
77481;PMS5003;66582;43.004;-75.010;2023-04-01T16:53:42;3;3;
77481;PMS5003;66582;43.004;-75.010;2023-04-01T16:56:08;5;4;
77481;PMS5003;66582;43.004;-75.010;2023-04-01T16:58:34;3;3;
77481;PMS5003;66582;43.004;-75.010;2023-04-01T17:01:00;3;3;
77481;PMS5003;66582;43.004;-75.010;2023-04-01T17:03:24;4;4;
77481;PMS5003;66582;43.004;-75.010;2023-04-01T17:05:50;4;3;
77481;PMS5003;66582;43.004;-75.010;2023-04-01T17:08:16;4;3;
77481;PMS5003;66582;43.004;-75.010;2023-04-01T17:10:39;3;3;
77481;PMS5003;66582;43.004;-75.010;2023-04-01T17:13:10;3;3;
77481;PMS5003;66582;43.004;-75.010;2023-04-01T17:15:28;2;2;
77481;PMS5003;66582;43.004;-75.010;2023-04-01T17:17:54;2;2;
77481;PMS5003;66582;43.004;-75.010;2023-04-01T17:22:45;3;3;
77481;PMS5003;66582;43.004;-75.010;2023-04-01T17:25:14;0;0;
77481;PMS5003;66582;43.004;-75.010;2023-04-01T17:27:36;2;2;
77481;PMS5003;66582;43.004;-75.010;2023-04-01T17:30:02;2;2;
77481;PMS5003;66582;43.004;-75.010;2023-04-01T17:32:27;3;2;
77481;PMS5003;66582;43.004;-75.010;2023-04-01T17:34:53;1;1;
77481;PMS5003;66582;43.004;-75.010;2023-04-01T17:37:25;2;2;
77481;PMS5003;66582;43.004;-75.010;2023-04-01T17:39:42;2;2;
77481;PMS5003;66582;43.004;-75.010;2023-04-01T17:42:06;1;1;
77481;PMS5003;66582;43.004;-75.010;2023-04-01T17:44:34;1;1;